Lyndhurst, NJ (07071)

2:29 PM EST on December 20, 2014 (GMT -0500)
North Arlington EMS | Change Station
CLOSE
Current Station
Personal Weather Station
Location: North Arlington, NJ
Elevation: 27 ft
Nearby Weather Stations

Elev 27 ft 40.79 °N, 74.12 °W | Updated 5 seconds ago

Overcast
Overcast
33.5 °F
Feels Like 34 °F
N
0.0
Wind Variable Wind from NW
Gusts 0.0 mph

Today
High -- | Low -- °F
--% Chance of Precip.
Yesterday
High -- | Low -- °F
Precip. -- in
7:16 AM 4:31 PM
Waning Crescent, 2% visible
Pressure 30.25 in
Visibility 10.0 miles
Clouds Overcast 3200 ft
Windchill 34 °F
Dew Point 24 °F
Humidity 69%
Rainfall 0.00 in
Snow Depth Not available.
UV 0 out of 12
Pollen .10 out of 12
Air Quality Not available.
Flu Activity Not available.
METAR KTEB 201851Z 32006KT 10SM OVC032 01/M07 A3025 RMK AO2 SLP244 T00061072

More Conditions Fewer Conditions

Pressure 30.25 in
Visibility 10.0 miles
Clouds Overcast 3200 ft
Windchill 34 °F
Dew Point 24 °F
Humidity 69%
Rainfall 0.00 in
Snow Depth Not available.
UV 0 out of 12
Pollen .10 out of 12
Air Quality Not available.
Flu Activity Not available.
METAR KTEB 201851Z 32006KT 10SM OVC032 01/M07 A3025 RMK AO2 SLP244 T00061072

More Conditions Fewer Conditions

10-Day Weather Forecast

Almanac

Astronomy

Dec. 20, 2014 Rise Set
Actual Time
Civil Twilight
Nautical Twilight
Astronomical Twilight
Moon
Length of Visible Light
Length of Day
Tomorrow will be .
, % of the Moon is Illuminated

Today's Extremes

State Highs State Lows

Community

WunderPhotos

Upload Photos

1,779,256 photos uploaded!

WunderBlogs® & News

Nearby

Air Quality

  Air Quality AQ Index Pollutant
Not available.

Snow Depth

Station Depth Elevation

Earthquake Activity

City Distance Mag. Time & Date
Minimum magnitude displayed is 2.5.

Coastal Water Temperatures

Place Temperature

Nearby Weather Stations